createdAt,value
2022-08-22T00:02:46.876Z,2.20
2022-08-22T00:02:48.934Z,3.30
2022-08-22T00:03:03.565Z,2.47
2022-08-22T00:03:04.495Z,2.10
2022-08-22T00:03:09.131Z,2.13
2022-08-22T00:03:15.576Z,2.43
2022-08-22T00:05:56.174Z,2.80
2022-08-22T00:09:03.088Z,2.47
2022-08-22T00:11:45.229Z,1.93
2022-08-22T00:14:23.754Z,2.33
2022-08-22T00:17:02.636Z,2.00
2022-08-22T00:20:06.899Z,2.53
2022-08-22T00:22:42.642Z,2.60
2022-08-22T00:25:25.529Z,2.50
2022-08-22T00:28:04.907Z,2.37
2022-08-22T00:30:42.559Z,1.90
2022-08-22T00:33:34.032Z,2.30
2022-08-22T00:36:10.539Z,2.60
2022-08-22T00:38:46.635Z,2.20
2022-08-22T00:41:31.805Z,2.53
2022-08-22T00:44:18.296Z,2.37
2022-08-22T00:47:07.903Z,2.33
2022-08-22T00:49:51.132Z,2.43
2022-08-22T00:52:45.036Z,2.23
2022-08-22T00:55:35.971Z,2.50
2022-08-22T00:58:23.803Z,2.50
2022-08-22T01:01:09.566Z,2.50
2022-08-22T01:03:46.606Z,2.40
2022-08-22T01:06:40.441Z,2.50
2022-08-22T01:09:36.228Z,2.43
2022-08-22T01:12:17.703Z,2.40
2022-08-22T01:14:58.025Z,2.67
2022-08-22T01:17:52.300Z,2.63
2022-08-22T01:20:21.350Z,2.77
2022-08-22T01:23:25.396Z,2.77
2022-08-22T01:26:00.908Z,2.70
2022-08-22T01:28:54.428Z,2.53
2022-08-22T01:31:58.863Z,2.50
2022-08-22T01:34:39.088Z,2.53
2022-08-22T01:37:43.641Z,2.40
2022-08-22T01:40:47.563Z,2.40
2022-08-22T01:43:59.846Z,2.90
2022-08-22T01:47:16.964Z,2.90
2022-08-22T01:49:48.955Z,2.70
2022-08-22T01:52:21.187Z,2.37
2022-08-22T01:54:59.905Z,2.67
2022-08-22T01:57:27.546Z,2.77
2022-08-22T02:00:10.034Z,2.60
2022-08-22T02:03:14.569Z,2.47
2022-08-22T02:05:53.375Z,2.40
2022-08-22T02:08:20.007Z,2.97
2022-08-22T02:11:32.391Z,2.40
2022-08-22T02:14:12.753Z,2.60
2022-08-22T02:16:43.449Z,2.30
2022-08-22T02:19:15.658Z,2.30
2022-08-22T02:21:45.064Z,2.30
2022-08-22T02:25:00.000Z,2.40
2022-08-22T02:27:57.586Z,2.63
2022-08-22T02:30:47.435Z,2.43
2022-08-22T02:33:46.572Z,2.17
2022-08-22T02:36:31.548Z,2.30
2022-08-22T02:39:19.251Z,2.40
2022-08-22T02:41:58.296Z,2.50
2022-08-22T02:44:32.551Z,2.50
2022-08-22T02:47:28.025Z,2.57
2022-08-22T02:50:05.083Z,2.33
2022-08-22T02:52:57.377Z,2.70
2022-08-22T02:55:38.795Z,2.60
2022-08-22T02:58:20.957Z,2.30
2022-08-22T03:01:12.555Z,2.70
2022-08-22T03:03:42.372Z,2.53
2022-08-22T03:06:32.611Z,2.87
2022-08-22T03:09:09.276Z,2.47
2022-08-22T03:11:40.228Z,2.70
2022-08-22T03:14:13.906Z,2.67
2022-08-22T03:16:58.269Z,2.90
2022-08-22T03:19:44.503Z,3.00
2022-08-22T03:22:21.778Z,2.63
2022-08-22T03:25:03.856Z,2.93
2022-08-22T03:28:06.491Z,2.73
2022-08-22T03:30:42.038Z,2.73
2022-08-22T03:33:31.182Z,2.63
2022-08-22T03:35:59.924Z,2.60
2022-08-22T03:38:40.324Z,2.53
2022-08-22T03:41:09.931Z,2.50
2022-08-22T03:44:07.391Z,2.53
2022-08-22T03:47:03.726Z,2.47
2022-08-22T03:49:52.992Z,2.60
2022-08-22T03:53:07.300Z,2.70
2022-08-22T03:55:47.939Z,3.27
2022-08-22T03:58:52.852Z,2.30
2022-08-22T04:01:35.014Z,2.50
2022-08-22T04:04:31.588Z,2.80
2022-08-22T04:07:40.920Z,2.40
2022-08-22T04:10:25.227Z,2.83
2022-08-22T04:13:09.875Z,2.70
2022-08-22T04:16:13.919Z,2.97
2022-08-22T04:18:46.380Z,2.50
2022-08-22T04:21:59.468Z,2.73
2022-08-22T04:24:28.890Z,2.70
2022-08-22T04:27:03.016Z,2.97
2022-08-22T04:29:48.303Z,2.97
2022-08-22T04:32:25.298Z,2.83
2022-08-22T04:35:01.932Z,2.50
2022-08-22T04:37:28.474Z,2.80
2022-08-22T04:40:02.951Z,2.70
2022-08-22T04:42:38.176Z,2.80
2022-08-22T04:45:24.091Z,2.87
2022-08-22T04:48:11.949Z,2.50
2022-08-22T04:50:52.842Z,2.90
2022-08-22T04:53:48.204Z,2.70
2022-08-22T04:56:54.637Z,3.07
2022-08-22T04:59:24.169Z,2.40
2022-08-22T05:01:57.584Z,3.20
2022-08-22T05:04:29.643Z,3.00
2022-08-22T05:07:17.470Z,3.50
2022-08-22T05:10:09.395Z,2.80
2022-08-22T05:12:50.997Z,2.47
2022-08-22T05:15:23.051Z,2.80
2022-08-22T05:17:53.416Z,2.40
2022-08-22T05:20:23.188Z,5.60
2022-08-22T05:22:54.697Z,2.83
2022-08-22T05:25:28.809Z,3.17
2022-08-22T05:28:14.685Z,2.70
2022-08-22T05:30:45.118Z,3.07
2022-08-22T05:33:40.613Z,2.93
2022-08-22T05:36:11.851Z,3.33
2022-08-22T05:38:49.152Z,2.87
2022-08-22T05:41:23.767Z,2.93
2022-08-22T05:43:52.015Z,3.00
2022-08-22T05:46:21.064Z,3.37
2022-08-22T05:48:59.784Z,3.53
2022-08-22T05:51:50.532Z,2.67
2022-08-22T05:54:33.464Z,2.80
2022-08-22T05:57:28.796Z,2.93
2022-08-22T06:00:06.698Z,3.17
2022-08-22T06:03:12.434Z,2.60
2022-08-22T06:05:42.560Z,2.87
2022-08-22T06:08:21.412Z,3.37
2022-08-22T06:10:53.296Z,2.77
2022-08-22T06:13:32.441Z,3.30
2022-08-22T06:16:23.593Z,3.37
2022-08-22T06:18:52.094Z,2.80
2022-08-22T06:21:38.548Z,2.63
2022-08-22T06:24:13.248Z,3.23
2022-08-22T06:26:48.710Z,3.33
2022-08-22T06:29:30.554Z,2.90
2022-08-22T06:31:57.820Z,3.17
2022-08-22T06:34:28.534Z,2.93
2022-08-22T06:36:57.671Z,2.70
2022-08-22T06:39:26.908Z,3.00
2022-08-22T06:42:16.325Z,3.03
2022-08-22T06:44:50.726Z,2.80
2022-08-22T06:47:25.365Z,3.30
2022-08-22T06:50:03.262Z,2.93
2022-08-22T06:52:34.404Z,2.90
2022-08-22T06:55:06.957Z,3.10
2022-08-22T06:57:50.418Z,2.93
2022-08-22T07:03:17.566Z,2.93
2022-08-22T07:05:44.195Z,2.40
2022-08-22T07:08:16.177Z,3.37
2022-08-22T07:10:55.543Z,2.80
2022-08-22T07:13:25.127Z,2.70
2022-08-22T07:15:59.112Z,3.10
2022-08-22T07:18:28.197Z,3.30
2022-08-22T07:20:58.847Z,2.63
2022-08-22T07:23:54.584Z,2.77
2022-08-22T07:26:30.947Z,2.87
2022-08-22T07:29:11.250Z,3.13
2022-08-22T07:31:49.668Z,3.07
2022-08-22T07:34:27.829Z,2.90
2022-08-22T07:37:03.701Z,2.77
2022-08-22T07:39:43.018Z,2.80
2022-08-22T07:42:21.550Z,2.50
2022-08-22T07:45:06.843Z,2.63
2022-08-22T07:48:01.038Z,2.63
2022-08-22T07:50:31.833Z,2.33
2022-08-22T07:53:09.911Z,2.37
2022-08-22T07:55:48.412Z,2.70
2022-08-22T07:58:18.192Z,2.97
2022-08-22T08:00:46.723Z,2.33
2022-08-22T08:03:13.695Z,2.60
2022-08-22T08:05:43.745Z,2.33
2022-08-22T08:08:35.850Z,2.53
2022-08-22T08:11:03.490Z,8.03
2022-08-22T08:13:35.519Z,2.20
2022-08-22T08:16:05.059Z,2.73
2022-08-22T08:18:35.149Z,2.77
2022-08-22T08:21:08.198Z,2.47
2022-08-22T08:23:44.968Z,3.03
2022-08-22T08:26:20.795Z,2.60
2022-08-22T08:28:53.408Z,2.70
2022-08-22T08:31:23.295Z,2.93
2022-08-22T08:33:58.079Z,2.47
2022-08-22T08:36:38.737Z,2.57
2022-08-22T08:39:35.479Z,2.67
2022-08-22T08:42:17.413Z,2.53
2022-08-22T08:44:46.828Z,2.63
2022-08-22T08:47:39.815Z,2.87
2022-08-22T08:50:31.418Z,3.10
2022-08-22T08:53:23.968Z,2.60
2022-08-22T08:56:26.731Z,2.93
2022-08-22T08:59:27.145Z,2.13
2022-08-22T09:02:23.689Z,2.83
2022-08-22T09:04:59.579Z,2.60
2022-08-22T09:07:42.783Z,3.00
2022-08-22T09:10:47.274Z,3.13
2022-08-22T09:13:43.909Z,2.43
2022-08-22T09:16:29.736Z,3.27
2022-08-22T09:18:59.245Z,2.90
2022-08-22T09:22:14.723Z,2.80
2022-08-22T09:25:00.673Z,2.90
2022-08-22T09:27:41.219Z,2.47
2022-08-22T09:30:15.462Z,3.00
2022-08-22T09:33:00.920Z,3.00
2022-08-22T09:35:47.278Z,3.00
2022-08-22T09:38:28.335Z,2.27
2022-08-22T09:41:00.169Z,2.90
2022-08-22T09:43:38.528Z,3.10
2022-08-22T09:46:21.719Z,2.83
2022-08-22T09:49:02.058Z,2.73
2022-08-22T09:51:34.903Z,3.17
2022-08-22T09:54:34.951Z,3.07
2022-08-22T09:57:29.967Z,2.83
2022-08-22T09:59:59.023Z,2.87
2022-08-22T10:02:32.154Z,2.70
2022-08-22T10:05:12.702Z,3.17
2022-08-22T10:08:19.843Z,3.07
2022-08-22T10:11:00.628Z,2.50
2022-08-22T10:13:43.513Z,2.83
2022-08-22T10:16:20.394Z,2.60
2022-08-22T10:19:22.080Z,2.70
2022-08-22T10:22:08.025Z,2.80
2022-08-22T10:24:44.212Z,2.70
2022-08-22T10:27:17.139Z,2.87
2022-08-22T10:30:06.803Z,2.30
2022-08-22T10:33:00.421Z,2.10
2022-08-22T10:36:00.498Z,2.53
2022-08-22T10:38:43.939Z,2.70
2022-08-22T10:41:31.419Z,2.90
2022-08-22T10:44:15.230Z,2.83
2022-08-22T10:46:58.787Z,2.90
2022-08-22T10:49:51.132Z,2.63
2022-08-22T10:52:46.237Z,2.60
2022-08-22T10:55:17.723Z,2.53
2022-08-22T10:57:53.158Z,2.43
2022-08-22T11:00:46.357Z,2.10
2022-08-22T11:03:36.622Z,2.27
2022-08-22T11:06:13.359Z,2.37
2022-08-22T11:08:54.845Z,2.67
2022-08-22T11:11:40.751Z,2.30
2022-08-22T11:14:24.589Z,2.90
2022-08-22T11:17:31.171Z,2.20
2022-08-22T11:20:16.125Z,2.20
2022-08-22T11:22:51.887Z,2.10
2022-08-22T11:25:44.143Z,2.23
2022-08-22T11:28:23.470Z,2.20
2022-08-22T11:31:00.766Z,2.20
2022-08-22T11:33:47.454Z,2.47
2022-08-22T11:36:41.460Z,2.20
2022-08-22T11:39:20.990Z,2.50
2022-08-22T11:42:14.721Z,2.50
2022-08-22T11:44:58.824Z,2.10
2022-08-22T11:47:30.274Z,2.30
2022-08-22T11:50:36.217Z,1.77
2022-08-22T11:53:29.242Z,2.20
2022-08-22T11:56:57.625Z,2.10
2022-08-22T12:00:02.790Z,2.20
2022-08-22T12:02:47.431Z,1.80
2022-08-22T12:05:26.275Z,2.17
2022-08-22T12:08:00.632Z,1.93
2022-08-22T12:10:33.871Z,2.20
2022-08-22T12:13:08.474Z,2.13
2022-08-22T12:15:56.632Z,2.30
2022-08-22T12:18:54.343Z,1.83
2022-08-22T12:21:57.444Z,2.33
2022-08-22T12:25:02.727Z,2.23
2022-08-22T12:27:48.140Z,2.27
2022-08-22T12:30:32.547Z,2.20
2022-08-22T12:33:28.561Z,2.13
2022-08-22T12:35:56.081Z,2.30
2022-08-22T12:38:54.561Z,2.43
2022-08-22T12:42:04.201Z,2.17
2022-08-22T12:45:02.212Z,2.10
2022-08-22T12:48:13.309Z,1.87
2022-08-22T12:50:40.003Z,1.73
2022-08-22T12:53:24.842Z,1.77
2022-08-22T12:56:17.870Z,2.00
2022-08-22T12:59:00.787Z,1.70
2022-08-22T13:01:34.567Z,2.20
2022-08-22T13:04:05.561Z,2.37
2022-08-22T13:06:38.137Z,1.77
2022-08-22T13:09:19.911Z,1.90
2022-08-22T13:12:00.265Z,2.10
2022-08-22T13:14:33.833Z,2.20
2022-08-22T13:17:15.214Z,2.13
2022-08-22T13:19:59.133Z,2.30
2022-08-22T13:22:29.574Z,1.80
2022-08-22T13:25:08.680Z,2.10
2022-08-22T13:27:40.902Z,2.00
2022-08-22T13:30:37.331Z,1.93
2022-08-22T13:33:12.775Z,2.10
2022-08-22T13:35:51.846Z,2.20
2022-08-22T13:38:36.692Z,2.03
2022-08-22T13:41:04.292Z,2.20
2022-08-22T13:43:53.074Z,2.07
2022-08-22T13:46:28.110Z,2.20
2022-08-22T13:49:00.885Z,1.70
2022-08-22T13:51:39.665Z,1.80
2022-08-22T13:54:49.584Z,1.80
2022-08-22T13:57:34.712Z,1.90
2022-08-22T14:00:12.376Z,2.13
2022-08-22T14:03:05.562Z,1.90
2022-08-22T14:05:42.326Z,1.73
2022-08-22T14:11:19.472Z,1.93
2022-08-22T14:13:59.217Z,1.87
2022-08-22T14:16:53.056Z,1.90
2022-08-22T14:19:53.323Z,2.17
2022-08-22T14:22:32.065Z,1.67
2022-08-22T14:25:08.587Z,2.00
2022-08-22T14:27:46.610Z,2.00
2022-08-22T14:30:16.948Z,1.90
2022-08-22T14:33:05.356Z,2.17
2022-08-22T14:35:41.435Z,2.30
2022-08-22T14:38:17.593Z,1.80
2022-08-22T14:40:47.012Z,2.00
2022-08-22T14:43:24.661Z,1.77
2022-08-22T14:46:02.121Z,1.83
2022-08-22T14:49:04.160Z,2.13
2022-08-22T14:51:35.333Z,1.60
2022-08-22T14:54:21.451Z,1.83
2022-08-22T14:56:51.700Z,2.07
2022-08-22T14:59:43.363Z,1.90
2022-08-22T15:02:33.555Z,2.00
2022-08-22T15:05:14.762Z,1.90
2022-08-22T15:07:41.486Z,1.73
2022-08-22T15:10:21.598Z,2.13
2022-08-22T15:12:53.988Z,1.40
2022-08-22T15:15:32.707Z,2.07
2022-08-22T15:18:27.483Z,2.00
2022-08-22T15:21:08.538Z,1.90
2022-08-22T15:23:45.093Z,1.73
2022-08-22T15:26:39.890Z,1.70
2022-08-22T15:29:29.793Z,1.50
2022-08-22T15:32:01.072Z,1.53
2022-08-22T15:34:41.931Z,1.90
2022-08-22T15:37:17.655Z,1.53
2022-08-22T15:40:08.444Z,1.77
2022-08-22T15:42:48.846Z,2.10
2022-08-22T15:45:28.824Z,1.70
2022-08-22T15:47:55.849Z,1.50
2022-08-22T15:51:09.462Z,1.80
2022-08-22T15:53:45.128Z,1.70
2022-08-22T15:56:11.513Z,1.67
2022-08-22T15:58:48.779Z,1.80
2022-08-22T16:01:19.691Z,2.00
2022-08-22T16:04:02.069Z,1.90
2022-08-22T16:06:52.779Z,1.87
2022-08-22T16:09:34.475Z,1.80
2022-08-22T16:12:06.364Z,1.70
2022-08-22T16:14:35.814Z,2.10
2022-08-22T16:17:08.041Z,2.00
2022-08-22T16:19:36.193Z,1.97
2022-08-22T16:22:07.862Z,1.80
2022-08-22T16:24:58.675Z,1.60
2022-08-22T16:27:27.300Z,1.70
2022-08-22T16:30:11.567Z,2.10
2022-08-22T16:32:39.758Z,1.70
2022-08-22T16:35:06.343Z,1.70
2022-08-22T16:37:47.900Z,1.83
2022-08-22T16:40:25.594Z,1.63
2022-08-22T16:43:11.750Z,1.90
2022-08-22T16:45:42.982Z,1.53
2022-08-22T16:48:26.724Z,1.70
2022-08-22T16:51:14.274Z,1.53
2022-08-22T16:53:45.754Z,1.90
2022-08-22T16:56:24.580Z,1.83
2022-08-22T16:59:14.141Z,1.50
2022-08-22T17:02:16.211Z,1.77
2022-08-22T17:04:57.773Z,1.67
2022-08-22T17:07:53.344Z,1.67
2022-08-22T17:13:40.997Z,1.80
2022-08-22T17:16:22.153Z,1.83
2022-08-22T17:19:03.279Z,1.53
2022-08-22T17:21:38.757Z,1.90
2022-08-22T17:24:08.293Z,1.73
2022-08-22T17:27:26.022Z,1.70
2022-08-22T17:30:10.217Z,1.40
2022-08-22T17:33:11.146Z,1.70
2022-08-22T17:35:46.934Z,1.47
2022-08-22T17:38:22.684Z,1.93
2022-08-22T17:41:27.567Z,1.50
2022-08-22T17:44:00.015Z,1.97
2022-08-22T17:46:42.904Z,1.50
2022-08-22T17:49:35.623Z,1.60
2022-08-22T17:52:15.171Z,1.70
2022-08-22T17:54:47.658Z,1.70
2022-08-22T17:57:56.290Z,1.87
2022-08-22T18:00:38.879Z,1.57
2022-08-22T18:03:26.606Z,1.97
2022-08-22T18:06:11.628Z,1.60
2022-08-22T18:12:01.874Z,2.07
2022-08-22T18:14:45.759Z,1.80
2022-08-22T18:17:29.961Z,1.57
2022-08-22T18:20:06.260Z,1.43
2022-08-22T18:22:50.350Z,1.60
2022-08-22T18:25:20.340Z,1.53
2022-08-22T18:28:00.930Z,2.33
2022-08-22T18:30:49.120Z,1.87
2022-08-22T18:33:22.490Z,1.87
2022-08-22T18:36:03.354Z,1.50
2022-08-22T18:38:39.430Z,1.60
2022-08-22T18:44:28.583Z,1.50
2022-08-22T18:46:58.830Z,1.70
2022-08-22T18:49:25.244Z,2.17
2022-08-22T18:52:13.793Z,1.50
2022-08-22T18:54:49.129Z,1.60
2022-08-22T18:57:43.407Z,1.97
2022-08-22T19:00:16.596Z,1.67
2022-08-22T19:03:08.228Z,1.87
2022-08-22T19:06:04.073Z,1.70
2022-08-22T19:09:02.780Z,2.00
2022-08-22T19:11:54.115Z,1.97
2022-08-22T19:14:40.807Z,1.87
2022-08-22T19:17:16.186Z,1.83
2022-08-22T19:20:25.702Z,1.67
2022-08-22T19:23:40.396Z,1.87
2022-08-22T19:26:26.183Z,1.63
2022-08-22T19:29:21.308Z,2.00
2022-08-22T19:31:52.749Z,2.00
2022-08-22T19:34:25.256Z,1.80
2022-08-22T19:37:30.707Z,2.07
2022-08-22T19:40:34.059Z,1.73
2022-08-22T19:43:16.180Z,2.10
2022-08-22T19:45:42.858Z,2.00
2022-08-22T19:48:14.942Z,2.27
2022-08-22T19:50:43.096Z,2.00
2022-08-22T19:53:27.445Z,2.07
2022-08-22T19:56:48.290Z,2.13
2022-08-22T19:59:36.459Z,2.03
2022-08-22T20:02:04.625Z,2.00
2022-08-22T20:04:50.058Z,2.13
2022-08-22T20:07:23.017Z,2.00
2022-08-22T20:09:58.459Z,2.00
2022-08-22T20:12:57.424Z,2.23
2022-08-22T20:15:26.742Z,2.13
2022-08-22T20:20:57.747Z,2.07
2022-08-22T20:23:29.580Z,1.70
2022-08-22T20:25:57.102Z,2.10
2022-08-22T20:28:23.460Z,2.07
2022-08-22T20:30:56.285Z,1.90
2022-08-22T20:33:28.825Z,2.00
2022-08-22T20:35:59.348Z,2.10
2022-08-22T20:38:56.945Z,1.80
2022-08-22T20:41:27.086Z,2.10
2022-08-22T20:44:19.925Z,2.10
2022-08-22T20:46:54.925Z,1.90
2022-08-22T20:49:47.180Z,2.20
2022-08-22T20:52:19.899Z,1.77
2022-08-22T20:55:06.187Z,1.80
2022-08-22T20:57:35.128Z,1.90
2022-08-22T21:00:14.451Z,2.30
2022-08-22T21:03:07.541Z,2.23
2022-08-22T21:05:39.924Z,2.30
2022-08-22T21:08:18.501Z,1.67
2022-08-22T21:11:14.215Z,2.03
2022-08-22T21:13:41.072Z,1.90
2022-08-22T21:16:31.948Z,1.90
2022-08-22T21:19:01.653Z,2.00
2022-08-22T21:21:34.839Z,1.93
2022-08-22T21:24:04.567Z,2.10
2022-08-22T21:26:38.357Z,1.90
2022-08-22T21:29:22.244Z,2.03
2022-08-22T21:31:52.988Z,1.97
2022-08-22T21:34:24.755Z,2.17
2022-08-22T21:36:53.825Z,1.93
2022-08-22T21:39:32.548Z,1.67
2022-08-22T21:41:58.943Z,2.00
2022-08-22T21:44:34.765Z,1.50
2022-08-22T21:47:30.566Z,1.60
2022-08-22T21:50:13.257Z,1.47
2022-08-22T21:52:55.920Z,1.53
2022-08-22T21:55:34.348Z,1.50
2022-08-22T21:58:35.071Z,1.57
2022-08-22T22:01:31.297Z,1.47
2022-08-22T22:03:59.091Z,1.60
2022-08-22T22:06:26.520Z,1.50
2022-08-22T22:08:52.998Z,1.23
2022-08-22T22:11:19.616Z,1.40
2022-08-22T22:13:46.271Z,1.47
2022-08-22T22:16:13.312Z,1.40
2022-08-22T22:18:40.510Z,1.17
2022-08-22T22:21:07.630Z,1.60
2022-08-22T22:23:34.029Z,1.67
2022-08-22T22:26:03.570Z,1.60
2022-08-22T22:28:58.569Z,1.27
2022-08-22T22:31:25.027Z,1.50
2022-08-22T22:33:51.422Z,1.57
2022-08-22T22:36:25.167Z,1.50
2022-08-22T22:38:52.839Z,1.60
2022-08-22T22:41:21.182Z,1.20
2022-08-22T22:43:47.615Z,1.30
2022-08-22T22:46:14.148Z,1.50
2022-08-22T22:48:40.600Z,1.50
2022-08-22T22:51:09.918Z,1.30
2022-08-22T22:53:40.321Z,1.60
2022-08-22T22:56:13.165Z,1.40
2022-08-22T22:58:40.884Z,1.37
2022-08-22T23:04:13.475Z,1.50
2022-08-22T23:06:39.912Z,1.33
2022-08-22T23:09:06.349Z,1.30
2022-08-22T23:11:32.824Z,1.40
2022-08-22T23:14:02.063Z,1.30
2022-08-22T23:16:32.043Z,1.40
2022-08-22T23:19:08.189Z,1.20
2022-08-22T23:21:34.640Z,1.33
2022-08-22T23:24:01.133Z,1.30
2022-08-22T23:26:28.468Z,1.27
2022-08-22T23:28:55.313Z,1.60
2022-08-22T23:31:32.616Z,1.47
2022-08-22T23:34:12.097Z,1.60
2022-08-22T23:36:41.385Z,1.30
2022-08-22T23:39:09.659Z,1.60
2022-08-22T23:41:37.331Z,1.30
2022-08-22T23:44:06.511Z,1.37
2022-08-22T23:46:36.056Z,1.40
2022-08-22T23:49:04.130Z,1.30
2022-08-22T23:51:30.723Z,1.47
2022-08-22T23:53:58.608Z,1.47
2022-08-22T23:56:35.518Z,1.40
2022-08-22T23:59:09.026Z,1.43
